Ozark, Alabama
Current Conditions -  °F | °C
As of 12:53 PM on Monday 20 Oct 2014 (Local Time) from KHEY Reporting Station
Clear Clear  
Wind Chill: 75°   Ceiling: Unl
Heat Index: 75°   Visibility: 10mi
Dew Point: 54°   Wind: 3mph
Humidity: 48%   Direction: NA
Pressure: 30.03"   Gusts: NA
Location:  31.46°N, 85.64°W
Report Text: KHEY 201753Z AUTO VRB03KT 10SM CLR 24/12 A3003 RMK AO2 SLP056 T02390122 10239 20089 58020
Loading
Personal Weather Stations






























Interactive Weather Map
Tropical Storm Tracking
New forecast layout! Learn more

10-Day Weather Forecast

Advertisements
Track Severe Weather on mobile